Time;durP1;ratioP1;P1;durP2;ratioP2;P2;SDS_P1;SDS_P2;PMS_P1;PMS_P2;Temp;Humidity;BMP_temperature;BMP_pressure;BME280_temperature;BME280_humidity;BME280_pressure;Samples;Min_cycle;Max_cycle;Signal;HPM_P1;HPM_P2
2022/01/28 00:00:32;;;;;;;3.20;1.77;;;;;;;7.54;65.31;102457.63;5020630;28;20038;-88
2022/01/28 00:03:06;;;;;;;6.15;1.73;;;;;;;7.56;65.29;102475.84;5007238;28;20038;-87
2022/01/28 00:05:33;;;;;;;11.20;2.05;;;;;;;7.46;65.82;102469.97;5006825;28;20031;-87
2022/01/28 00:07:59;;;;;;;8.70;2.42;;;;;;;7.39;65.95;102476.25;4999311;28;20036;-88
2022/01/28 00:10:26;;;;;;;8.20;2.50;;;;;;;7.26;66.10;102470.41;4997810;28;20109;-87
2022/01/28 00:15:30;;;;;;;9.73;2.05;;;;;;;7.21;66.05;102482.72;4995338;28;20109;-87
2022/01/28 00:39:57;;;;;;;8.18;2.13;;;;;;;7.08;68.31;102478.63;5003834;28;20445;-87
2022/01/28 00:42:23;;;;;;;13.10;1.92;;;;;;;7.04;67.74;102483.03;4996931;28;20061;-87
2022/01/28 00:44:48;;;;;;;5.60;1.85;;;;;;;7.05;67.28;102495.22;4997194;28;20026;-87
2022/01/28 00:47:13;;;;;;;8.02;1.90;;;;;;;6.99;67.06;102487.50;5016748;28;20199;-88
2022/01/28 00:49:39;;;;;;;6.30;2.25;;;;;;;6.90;66.71;102488.53;5016484;28;20431;-87
2022/01/28 00:52:04;;;;;;;5.43;2.53;;;;;;;6.89;67.00;102499.88;5016379;28;20106;-87
2022/01/28 00:54:30;;;;;;;11.82;2.20;;;;;;;6.89;67.41;102505.13;5016141;28;20104;-87
2022/01/28 00:56:55;;;;;;;7.13;1.90;;;;;;;6.82;67.20;102497.41;5016356;28;20026;-87
2022/01/28 00:59:20;;;;;;;6.40;1.67;;;;;;;6.75;67.53;102497.53;5016329;28;20026;-88
2022/01/28 01:01:46;;;;;;;11.98;1.85;;;;;;;6.72;67.11;102497.56;5013856;28;20042;-87
2022/01/28 01:04:13;;;;;;;7.57;2.00;;;;;;;6.69;66.61;102491.53;5015860;28;20037;-87
2022/01/28 01:06:38;;;;;;;3.97;1.60;;;;;;;6.66;66.84;102496.84;5016019;28;20054;-87
2022/01/28 01:09:04;;;;;;;6.03;1.48;;;;;;;6.67;66.98;102499.41;5016277;28;20116;-87
2022/01/28 01:11:29;;;;;;;4.63;2.10;;;;;;;6.67;67.10;102509.84;5016100;28;20036;-87
2022/01/28 01:13:56;;;;;;;5.85;1.50;;;;;;;6.65;66.79;102493.34;5015730;28;20021;-88
2022/01/28 01:16:36;;;;;;;9.00;2.10;;;;;;;6.91;67.10;102499.84;5002984;28;20057;-87
2022/01/28 01:21:39;;;;;;;9.57;4.55;;;;;;;6.91;67.00;102510.28;4996177;28;20116;-87
2022/01/28 01:24:07;;;;;;;5.53;1.50;;;;;;;6.88;65.93;102505.13;4995893;28;20117;-87
2022/01/28 01:26:36;;;;;;;9.00;2.30;;;;;;;6.79;66.25;102492.25;4996658;28;20053;-87
2022/01/28 01:29:05;;;;;;;4.90;1.90;;;;;;;6.77;66.00;102510.53;4995817;28;20018;-87
2022/01/28 01:31:31;;;;;;;6.47;2.17;;;;;;;6.55;66.97;102515.28;5011998;28;20025;-87
2022/01/28 01:34:17;;;;;;;5.40;1.70;;;;;;;6.62;67.32;102490.81;5015475;28;20104;-87
2022/01/28 01:36:43;;;;;;;6.00;2.70;;;;;;;6.80;66.45;102509.66;5015156;28;20029;-87
2022/01/28 01:39:10;;;;;;;5.60;2.17;;;;;;;6.83;66.81;102510.44;5015206;28;20032;-87
2022/01/28 01:41:46;;;;;;;4.85;1.60;;;;;;;6.89;66.56;102512.06;5015480;28;20049;-87
2022/01/28 01:52:26;;;;;;;6.47;1.80;;;;;;;6.67;66.30;102515.06;5015465;28;20465;-87
2022/01/28 01:54:52;;;;;;;4.82;2.00;;;;;;;6.70;66.30;102516.78;5014852;28;20061;-87
2022/01/28 01:57:18;;;;;;;4.53;1.90;;;;;;;6.73;65.67;102512.38;5015357;28;20018;-87
2022/01/28 01:59:44;;;;;;;8.25;1.90;;;;;;;6.63;66.43;102518.63;5013461;28;20040;-87
2022/01/28 02:02:10;;;;;;;3.33;1.52;;;;;;;6.67;66.56;102520.28;5013313;28;20026;-87
2022/01/28 02:04:36;;;;;;;3.92;1.40;;;;;;;6.78;66.38;102516.66;5014701;28;20488;-87
2022/01/28 02:07:03;;;;;;;8.57;2.35;;;;;;;6.77;66.06;102527.97;5014662;28;20053;-87
2022/01/28 02:09:28;;;;;;;9.30;1.75;;;;;;;6.71;65.97;102518.47;5014983;28;20033;-87
2022/01/28 02:11:54;;;;;;;5.88;1.95;;;;;;;6.75;66.28;102513.19;5014834;28;20022;-87
2022/01/28 02:14:20;;;;;;;5.13;1.80;;;;;;;6.66;66.93;102523.81;5014759;28;20030;-87
2022/01/28 02:16:45;;;;;;;6.28;2.13;;;;;;;6.63;67.17;102518.63;4998539;28;20452;-86
2022/01/28 02:19:10;;;;;;;4.53;1.95;;;;;;;6.83;66.48;102506.97;4996107;28;20027;-87
2022/01/28 02:21:56;;;;;;;4.00;1.80;;;;;;;6.80;66.61;102513.09;4995362;28;20374;-87
2022/01/28 02:24:28;;;;;;;5.18;1.50;;;;;;;6.75;66.62;102513.19;4994982;28;20026;-87
2022/01/28 02:26:53;;;;;;;6.43;2.25;;;;;;;6.77;66.56;102525.34;4994793;28;20113;-87
2022/01/28 02:29:28;;;;;;;5.05;2.17;;;;;;;6.77;66.39;102527.97;4994807;28;20062;-87
2022/01/28 02:31:56;;;;;;;5.13;2.05;;;;;;;6.74;66.60;102523.66;4995821;28;20033;-87
2022/01/28 02:34:21;;;;;;;10.60;3.20;;;;;;;6.67;65.98;102515.06;4994809;28;20046;-87
2022/01/28 02:36:47;;;;;;;8.68;2.97;;;;;;;6.65;66.09;102521.22;4994602;28;20030;-87
2022/01/28 02:39:13;;;;;;;8.02;2.80;;;;;;;6.63;66.11;102528.22;4994750;28;20396;-87
2022/01/28 02:41:42;;;;;;;8.18;2.28;;;;;;;6.70;66.12;102530.69;4994300;28;20028;-86
2022/01/28 02:46:37;;;;;;;6.28;2.08;;;;;;;6.60;66.19;102536.97;4994835;28;20079;-86
2022/01/28 02:49:07;;;;;;;10.25;2.40;;;;;;;6.64;65.71;102535.16;4994168;28;20060;-87
2022/01/28 02:51:33;;;;;;;8.98;2.15;;;;;;;6.68;65.75;102527.25;4994517;28;20031;-87
2022/01/28 02:54:01;;;;;;;6.40;1.65;;;;;;;6.70;65.96;102541.13;4994409;28;20030;-87
2022/01/28 02:58:57;;;;;;;5.70;2.25;;;;;;;6.65;66.49;102537.72;4993667;28;20026;-87
2022/01/28 03:01:22;;;;;;;5.68;1.70;;;;;;;6.35;67.19;102539.09;4994017;28;20061;-87
2022/01/28 03:03:50;;;;;;;6.03;2.20;;;;;;;6.29;67.43;102529.63;4994099;28;20431;-87
2022/01/28 03:06:17;;;;;;;4.20;1.90;;;;;;;6.28;67.31;102520.09;4994089;28;20026;-87
2022/01/28 03:08:50;;;;;;;5.55;1.80;;;;;;;6.59;66.80;102519.56;4993896;28;20022;-87
2022/01/28 03:12:13;;;;;;;9.57;2.28;;;;;;;6.50;66.96;102522.34;4993963;28;20102;-87
2022/01/28 03:19:22;;;;;;;15.60;4.13;;;;;;;6.50;66.96;102536.25;4993723;28;20520;-87
2022/01/28 03:21:58;;;;;;;7.13;1.73;;;;;;;6.52;67.15;102526.66;4994073;28;20117;-87
2022/01/28 03:24:26;;;;;;;6.15;2.17;;;;;;;6.54;66.98;102529.25;4993426;28;20062;-86
2022/01/28 03:26:57;;;;;;;5.22;2.00;;;;;;;6.53;67.13;102517.06;4993654;28;20102;-87
2022/01/28 03:29:23;;;;;;;5.45;2.45;;;;;;;6.40;67.52;102516.44;4993613;28;20022;-87
2022/01/28 03:31:48;;;;;;;10.48;2.65;;;;;;;6.38;67.26;102517.31;4994659;28;20404;-87
2022/01/28 03:34:14;;;;;;;8.98;2.08;;;;;;;6.36;67.69;102512.16;4993636;28;20038;-87
2022/01/28 03:36:40;;;;;;;3.80;1.60;;;;;;;6.36;67.68;102509.53;4993479;28;20033;-87
2022/01/28 03:39:07;;;;;;;6.30;1.83;;;;;;;6.40;67.50;102510.31;4993567;28;20033;-87
2022/01/28 03:41:33;;;;;;;2.47;1.67;;;;;;;6.43;67.57;102500.69;4993754;28;20026;-87
2022/01/28 03:44:00;;;;;;;7.53;2.08;;;;;;;6.45;67.75;102495.47;4993187;28;20080;-87
2022/01/28 03:46:26;;;;;;;8.23;2.40;;;;;;;6.55;66.86;102481.34;4996409;28;20025;-86
2022/01/28 03:48:53;;;;;;;16.50;2.55;;;;;;;6.54;67.43;102492.69;5013181;28;20021;-87
2022/01/28 03:51:18;;;;;;;5.53;1.90;;;;;;;6.59;67.40;102503.06;5013244;28;20022;-87
2022/01/28 03:53:44;;;;;;;7.45;2.42;;;;;;;6.65;67.25;102498.56;5026357;28;20025;-86
2022/01/28 03:56:09;;;;;;;10.70;2.92;;;;;;;6.85;66.72;102499.97;5027076;28;20072;-87
2022/01/28 03:58:35;;;;;;;10.02;3.08;;;;;;;6.71;67.17;102498.47;5024713;28;20022;-86
2022/01/28 04:01:00;;;;;;;8.25;2.10;;;;;;;6.78;66.79;102494.00;5012056;28;20484;-86
2022/01/28 04:13:53;;;;;;;5.25;1.52;;;;;;;6.61;66.83;102502.13;4998334;28;20045;-86
2022/01/28 04:18:48;;;;;;;6.40;2.28;;;;;;;6.55;66.68;102502.22;5017177;28;20113;-86
2022/01/28 04:21:14;;;;;;;5.50;1.50;;;;;;;6.54;66.65;102496.16;5017293;28;20026;-86
2022/01/28 04:23:39;;;;;;;7.90;2.30;;;;;;;6.50;66.38;102485.81;5017543;28;20044;-86
2022/01/28 04:26:05;;;;;;;5.80;1.95;;;;;;;6.50;66.86;102491.88;5017166;28;20030;-86
2022/01/28 04:28:30;;;;;;;6.18;2.33;;;;;;;6.49;66.36;102484.06;5015842;28;20026;-86
2022/01/28 04:30:56;;;;;;;3.85;1.83;;;;;;;6.46;66.27;102489.38;5005598;28;20121;-86
2022/01/28 04:33:21;;;;;;;4.07;1.75;;;;;;;6.46;66.58;102486.75;4997224;28;20385;-86
2022/01/28 04:35:50;;;;;;;3.35;2.03;;;;;;;6.44;66.33;102493.75;4997147;28;20092;-86
2022/01/28 04:41:02;;;;;;;3.95;1.85;;;;;;;6.29;67.29;102497.47;4997187;28;20113;-86
2022/01/28 04:43:35;;;;;;;5.07;2.42;;;;;;;6.30;67.15;102500.06;4997051;28;20113;-86
2022/01/28 04:48:56;;;;;;;6.57;2.80;;;;;;;6.27;66.88;102488.81;5016760;28;20037;-86
2022/01/28 04:51:32;;;;;;;8.88;2.30;;;;;;;6.28;66.95;102490.50;5016193;28;20033;-86
2022/01/28 04:54:13;;;;;;;6.05;2.55;;;;;;;6.33;66.79;102496.53;5016567;28;20480;-86
2022/01/28 04:56:56;;;;;;;8.07;3.30;;;;;;;6.19;66.71;102490.69;5016591;28;20030;-86
2022/01/28 04:59:43;;;;;;;8.57;3.63;;;;;;;6.12;67.06;102489.91;5014707;28;20126;-86
2022/01/28 05:28:48;;;;;;;8.25;3.90;;;;;;;5.99;67.86;102478.81;4994704;28;20122;-86
2022/01/28 05:31:14;;;;;;;12.38;4.00;;;;;;;5.92;68.49;102480.63;4995868;28;20033;-86
2022/01/28 05:33:39;;;;;;;7.18;4.07;;;;;;;5.93;68.29;102484.94;4995659;28;20105;-86
2022/01/28 05:36:04;;;;;;;11.30;2.65;;;;;;;6.08;68.18;102485.63;4995888;28;20062;-86
2022/01/28 05:38:30;;;;;;;3.83;2.33;;;;;;;6.06;68.29;102495.22;5002802;28;20018;-86
2022/01/28 05:40:55;;;;;;;4.03;1.85;;;;;;;6.00;68.08;102495.31;5000309;28;20026;-86
2022/01/28 05:43:21;;;;;;;5.25;2.13;;;;;;;5.98;68.05;102486.66;4995528;28;20050;-86
2022/01/28 05:45:46;;;;;;;4.28;2.28;;;;;;;5.96;68.51;102494.50;4995516;28;20033;-86
2022/01/28 05:48:12;;;;;;;4.55;2.28;;;;;;;6.00;67.96;102492.72;5002347;28;20109;-86
2022/01/28 05:50:37;;;;;;;2.38;1.75;;;;;;;5.92;68.12;102495.41;5003899;28;20365;-86
2022/01/28 05:53:03;;;;;;;5.93;2.00;;;;;;;5.87;68.12;102490.25;5002600;28;20022;-86
2022/01/28 05:55:28;;;;;;;4.70;2.40;;;;;;;5.82;67.87;102492.06;5003948;28;20133;-86
2022/01/28 05:57:54;;;;;;;4.38;1.67;;;;;;;5.77;67.95;102480.84;4998479;28;20034;-86
2022/01/28 06:00:19;;;;;;;4.88;1.83;;;;;;;5.76;67.69;102477.38;5004006;28;20026;-86
2022/01/28 06:02:45;;;;;;;7.93;3.42;;;;;;;5.82;68.52;102486.84;5002328;28;20059;-86
2022/01/28 06:05:11;;;;;;;3.67;2.42;;;;;;;5.80;68.46;102501.66;5014757;28;20057;-86
2022/01/28 06:07:42;;;;;;;5.15;2.50;;;;;;;5.77;68.42;102504.31;5014754;28;20045;-85
2022/01/28 06:10:12;;;;;;;6.25;2.63;;;;;;;5.70;68.31;102500.91;5002968;28;20077;-85
2022/01/28 06:12:42;;;;;;;8.43;2.67;;;;;;;5.68;68.12;102507.91;5009073;28;20096;-86
2022/01/28 06:15:09;;;;;;;9.20;2.47;;;;;;;5.58;67.96;102508.91;5013240;28;20037;-87
2022/01/28 06:17:34;;;;;;;2.80;2.13;;;;;;;5.53;67.86;102510.75;5004249;28;20034;-87
2022/01/28 06:20:02;;;;;;;2.88;2.10;;;;;;;5.40;67.59;102503.97;4997127;28;20068;-87
2022/01/28 06:22:27;;;;;;;4.82;2.70;;;;;;;5.35;67.97;102517.00;5006223;28;20041;-87
2022/01/28 06:24:53;;;;;;;6.65;2.60;;;;;;;5.27;68.18;102513.66;5006796;28;20034;-89
2022/01/28 06:27:18;;;;;;;3.38;2.20;;;;;;;5.26;68.18;102518.00;5003710;28;20165;-88
2022/01/28 06:29:43;;;;;;;7.55;1.98;;;;;;;5.31;68.15;102525.75;5000841;28;20419;-87
2022/01/28 06:32:11;;;;;;;5.40;2.38;;;;;;;5.38;69.12;102527.41;5005336;28;20057;-87
2022/01/28 06:34:38;;;;;;;4.88;2.40;;;;;;;5.42;69.17;102544.72;5007970;28;20029;-88
2022/01/28 06:37:04;;;;;;;4.10;2.45;;;;;;;5.39;69.36;102544.78;5002993;28;20044;-87
2022/01/28 06:39:32;;;;;;;6.72;2.53;;;;;;;5.40;69.81;102525.66;4996844;28;20037;-87
2022/01/28 06:41:58;;;;;;;5.97;2.45;;;;;;;5.48;70.43;102536.84;5003545;28;20038;-87
2022/01/28 06:44:23;;;;;;;7.32;2.30;;;;;;;5.55;70.23;102537.63;5002099;28;20060;-88
2022/01/28 06:46:49;;;;;;;2.80;1.90;;;;;;;5.59;70.08;102536.72;5010750;28;20026;-88
2022/01/28 06:49:14;;;;;;;5.07;2.25;;;;;;;5.61;70.07;102536.66;5009108;28;20432;-88
2022/01/28 06:51:40;;;;;;;5.93;2.40;;;;;;;5.62;69.88;102535.81;5010384;28;20033;-88
2022/01/28 06:54:05;;;;;;;6.90;2.45;;;;;;;5.65;69.64;102541.84;5012395;28;20022;-88
2022/01/28 06:56:30;;;;;;;6.38;2.25;;;;;;;5.63;69.58;102537.50;5008632;28;20027;-88
2022/01/28 06:58:56;;;;;;;6.60;2.45;;;;;;;5.57;69.72;102520.25;4999681;28;20553;-88
2022/01/28 07:01:21;;;;;;;6.82;2.65;;;;;;;5.54;69.26;102518.50;5001120;28;20049;-88
2022/01/28 07:03:46;;;;;;;6.70;2.45;;;;;;;5.52;68.82;102520.28;4999259;28;20365;-88
2022/01/28 07:06:13;;;;;;;5.82;2.83;;;;;;;5.36;69.85;102523.97;5009516;28;20472;-88
2022/01/28 07:08:39;;;;;;;9.57;3.70;;;;;;;5.41;69.53;102524.78;5013934;28;20057;-88
2022/01/28 07:11:04;;;;;;;7.50;2.97;;;;;;;5.38;69.15;102519.59;5012726;28;20072;-88
2022/01/28 07:13:29;;;;;;;3.45;2.60;;;;;;;5.36;69.16;102508.34;5013746;28;20380;-87
2022/01/28 07:15:55;;;;;;;4.97;2.65;;;;;;;5.38;68.52;102513.53;5013919;28;20048;-88
2022/01/28 07:18:20;;;;;;;9.02;3.13;;;;;;;5.32;68.38;102511.88;5013651;28;20026;-88
2022/01/28 07:20:46;;;;;;;9.68;2.95;;;;;;;5.23;67.96;102527.59;5011921;28;20140;-88
2022/01/28 07:23:11;;;;;;;5.90;2.95;;;;;;;5.13;67.83;102532.03;5012750;28;20120;-88
2022/01/28 07:25:37;;;;;;;7.05;2.97;;;;;;;5.05;68.03;102541.69;5013212;28;20105;-88
2022/01/28 07:28:03;;;;;;;6.30;3.20;;;;;;;4.96;68.71;102534.84;5013405;28;20018;-88
2022/01/28 07:30:28;;;;;;;7.65;2.15;;;;;;;4.93;68.76;102525.28;5013365;28;20053;-88
2022/01/28 07:32:54;;;;;;;4.50;2.38;;;;;;;4.99;68.39;102531.34;5012832;28;20484;-88
2022/01/28 07:35:19;;;;;;;3.78;2.38;;;;;;;5.00;68.52;102528.72;5006237;28;20080;-88
2022/01/28 07:37:45;;;;;;;6.40;3.00;;;;;;;5.04;68.89;102538.22;4993375;28;20030;-88
2022/01/28 07:40:11;;;;;;;10.77;4.40;;;;;;;5.08;68.83;102542.50;4993284;28;20101;-88
2022/01/28 07:42:37;;;;;;;7.35;3.45;;;;;;;5.04;68.88;102537.38;4993295;28;20445;-88
2022/01/28 07:45:08;;;;;;;10.23;3.58;;;;;;;5.24;69.65;102550.16;4993229;28;20041;-88
2022/01/28 07:47:36;;;;;;;12.50;3.60;;;;;;;5.28;69.97;102551.84;4993459;28;20492;-88
2022/01/28 07:50:02;;;;;;;9.63;3.92;;;;;;;5.30;69.90;102550.94;4994900;28;20041;-88
2022/01/28 07:52:28;;;;;;;12.02;4.15;;;;;;;5.35;69.75;102561.31;5012874;28;20040;-87
2022/01/28 07:54:53;;;;;;;12.38;4.18;;;;;;;5.35;70.16;102562.19;5013044;28;20477;-88
2022/01/28 07:57:20;;;;;;;10.23;4.13;;;;;;;5.47;69.89;102573.31;5013270;28;20026;-88
2022/01/28 07:59:45;;;;;;;6.18;3.92;;;;;;;5.53;70.14;102578.50;5011386;28;20063;-88
2022/01/28 08:02:11;;;;;;;11.00;4.97;;;;;;;5.60;70.28;102576.66;5019447;28;20049;-87
2022/01/28 08:04:38;;;;;;;11.57;5.28;;;;;;;5.66;69.98;102573.97;5032248;28;20064;-88
2022/01/28 08:07:04;;;;;;;7.63;4.72;;;;;;;5.66;69.65;102555.72;5028969;28;20046;-87
2022/01/28 08:09:29;;;;;;;8.48;4.72;;;;;;;5.77;69.87;102561.66;5026487;28;20022;-88
2022/01/28 08:11:54;;;;;;;15.30;6.78;;;;;;;5.85;69.36;102564.19;5030074;28;20436;-88
2022/01/28 08:14:20;;;;;;;13.75;6.30;;;;;;;5.76;69.83;102557.31;5029559;28;20017;-88
2022/01/28 08:16:45;;;;;;;8.75;5.80;;;;;;;5.73;69.66;102568.66;5026811;28;20026;-87
2022/01/28 08:19:10;;;;;;;10.43;5.57;;;;;;;5.80;69.51;102577.25;5028520;28;20072;-89
2022/01/28 08:21:36;;;;;;;12.07;6.38;;;;;;;5.91;69.47;102580.59;5017657;28;20025;-89
2022/01/28 08:24:01;;;;;;;14.88;6.97;;;;;;;5.91;69.03;102579.72;5015148;28;20084;-89
2022/01/28 08:26:27;;;;;;;13.88;6.47;;;;;;;5.95;68.43;102586.66;5012735;28;20034;-88
2022/01/28 08:28:52;;;;;;;11.82;5.85;;;;;;;6.02;67.82;102587.44;5013477;28;20017;-89
2022/01/28 08:31:18;;;;;;;10.40;6.18;;;;;;;5.87;68.34;102583.28;4999785;28;20465;-89
2022/01/28 08:33:43;;;;;;;13.65;7.38;;;;;;;5.91;68.85;102580.59;4994009;28;20054;-89
2022/01/28 08:36:09;;;;;;;10.38;5.07;;;;;;;6.20;68.43;102579.34;4993913;28;20027;-90
2022/01/28 08:38:44;;;;;;;11.65;6.40;;;;;;;6.32;67.35;102571.34;5002285;28;20468;-89
2022/01/28 08:41:12;;;;;;;9.60;5.78;;;;;;;6.44;67.38;102567.69;5013238;28;20025;-89
2022/01/28 08:43:41;;;;;;;11.77;5.82;;;;;;;6.33;68.71;102557.41;5000295;28;20030;-90
2022/01/28 08:46:07;;;;;;;11.43;6.10;;;;;;;6.73;67.98;102582.88;4992905;28;20030;-89
2022/01/28 08:48:32;;;;;;;12.88;6.95;;;;;;;6.92;67.80;102598.19;4992794;28;20033;-90
2022/01/28 08:50:59;;;;;;;16.27;6.68;;;;;;;7.00;68.21;102608.50;4992733;28;20022;-89
2022/01/28 08:53:24;;;;;;;8.88;5.57;;;;;;;7.07;68.23;102607.50;5006747;28;20034;-88
2022/01/28 08:55:50;;;;;;;13.60;6.38;;;;;;;7.27;67.92;102615.00;5012968;28;20022;-89
2022/01/28 08:58:16;;;;;;;10.13;6.10;;;;;;;7.44;68.18;102602.44;4996136;28;20029;-89
2022/01/28 09:00:45;;;;;;;8.88;5.53;;;;;;;7.53;67.82;102597.03;5004230;28;20476;-87
2022/01/28 09:03:12;;;;;;;14.20;6.95;;;;;;;7.59;67.75;102598.69;5015283;28;20022;-88
2022/01/28 09:05:37;;;;;;;16.60;7.32;;;;;;;7.67;67.86;102593.28;5014395;28;20500;-85
2022/01/28 09:08:08;;;;;;;16.05;8.13;;;;;;;7.59;68.73;102589.97;5009519;28;20108;-88
2022/01/28 09:10:37;;;;;;;15.83;7.87;;;;;;;7.64;69.00;102583.75;4996766;28;20030;-88
2022/01/28 09:15:35;;;;;;;14.13;7.47;;;;;;;7.60;71.29;102596.91;5014974;28;20137;-89
2022/01/28 09:18:01;;;;;;;10.40;6.53;;;;;;;7.87;70.52;102590.25;5015158;28;20073;-89
2022/01/28 09:20:29;;;;;;;10.68;6.97;;;;;;;7.81;71.46;102591.25;5000654;28;20085;-90
2022/01/28 09:22:55;;;;;;;9.10;5.68;;;;;;;8.16;70.29;102592.22;4996062;28;20516;-88
2022/01/28 09:25:21;;;;;;;10.55;5.90;;;;;;;8.18;70.47;102594.81;4995109;28;20070;-88
2022/01/28 09:27:46;;;;;;;8.73;5.60;;;;;;;8.22;70.92;102580.75;5003388;28;20492;-88
2022/01/28 09:30:11;;;;;;;10.77;6.30;;;;;;;8.31;71.21;102565.69;5007714;28;20105;-87
2022/01/28 09:32:37;;;;;;;9.38;6.35;;;;;;;8.41;70.74;102571.63;5010072;28;20032;-88
2022/01/28 09:35:02;;;;;;;8.15;5.65;;;;;;;8.41;71.17;102574.22;5012627;28;20026;-88
2022/01/28 09:37:29;;;;;;;12.93;6.28;;;;;;;8.47;70.46;102592.41;5001752;28;20108;-88
2022/01/28 09:39:55;;;;;;;14.30;7.50;;;;;;;8.50;70.42;102601.94;5014656;28;20032;-88
2022/01/28 09:42:23;;;;;;;13.75;7.22;;;;;;;8.55;70.47;102605.31;5012179;28;20434;-88
2022/01/28 09:44:49;;;;;;;10.77;6.28;;;;;;;8.63;70.66;102598.13;5003093;28;20037;-88
2022/01/28 09:47:16;;;;;;;9.63;6.40;;;;;;;8.64;69.78;102593.75;5001397;28;20034;-89
2022/01/28 09:49:43;;;;;;;7.75;5.63;;;;;;;8.73;70.46;102604.00;5013957;28;20022;-88
2022/01/28 09:52:13;;;;;;;16.10;6.60;;;;;;;8.71;70.35;102596.16;5015279;28;20036;-89
2022/01/28 09:54:39;;;;;;;8.13;5.10;;;;;;;8.90;70.05;102629.75;5015034;28;20308;-89
2022/01/28 09:57:09;;;;;;;7.18;5.43;;;;;;;8.96;70.77;102636.59;5014070;28;20040;-89
2022/01/28 09:59:35;;;;;;;11.02;4.47;;;;;;;8.89;70.45;102635.91;5014647;28;20030;-88
2022/01/28 10:02:01;;;;;;;5.32;4.20;;;;;;;9.03;70.62;102632.94;5014130;28;20037;-88
2022/01/28 10:04:26;;;;;;;5.78;3.97;;;;;;;9.11;70.63;102637.06;5012154;28;20026;-88
2022/01/28 10:06:54;;;;;;;4.63;3.80;;;;;;;9.16;70.90;102628.22;5012498;28;20412;-89
2022/01/28 10:09:19;;;;;;;5.07;3.80;;;;;;;9.18;70.53;102600.19;5013859;28;20077;-89
2022/01/28 10:11:48;;;;;;;9.38;5.07;;;;;;;9.30;70.23;102600.75;5012616;28;20029;-89
2022/01/28 10:14:21;;;;;;;19.45;4.72;;;;;;;9.12;70.90;102604.72;5013971;28;20018;-89
2022/01/28 10:16:58;;;;;;;21.95;5.70;;;;;;;9.26;70.56;102598.22;5013685;28;20025;-88
2022/01/28 10:19:26;;;;;;;22.60;5.38;;;;;;;9.27;70.83;102599.97;4996094;28;20069;-89
2022/01/28 10:21:54;;;;;;;49.90;5.50;;;;;;;9.21;70.60;102611.47;5003964;28;20025;-88
2022/01/28 10:24:26;;;;;;;6.03;4.47;;;;;;;9.17;70.63;102604.59;5011437;28;20399;-88
2022/01/28 10:26:55;;;;;;;7.25;4.35;;;;;;;9.17;70.79;102595.88;5011866;28;20030;-88
2022/01/28 10:29:26;;;;;;;10.38;5.28;;;;;;;9.20;70.74;102598.41;5000826;28;20041;-88
2022/01/28 10:32:05;;;;;;;27.58;5.90;;;;;;;8.99;71.45;102599.84;5013326;28;20037;-88
2022/01/28 10:34:31;;;;;;;50.58;6.85;;;;;;;8.84;71.42;102606.34;4994999;28;20092;-88
2022/01/28 10:37:14;;;;;;;7.82;4.85;;;;;;;8.93;72.52;102616.59;4995161;28;20056;-88
2022/01/28 10:39:57;;;;;;;9.60;6.07;;;;;;;9.28;70.88;102630.50;5010387;28;20021;-89
2022/01/28 10:42:25;;;;;;;12.23;6.28;;;;;;;9.45;69.93;102625.66;5012450;28;20026;-88
2022/01/28 10:45:05;;;;;;;12.98;6.45;;;;;;;9.46;70.41;102627.41;5013291;28;20032;-88
2022/01/28 10:47:36;;;;;;;8.93;6.20;;;;;;;9.39;70.23;102623.22;5011734;28;20022;-88
2022/01/28 10:50:16;;;;;;;15.17;6.73;;;;;;;9.32;70.39;102619.03;5013393;28;20053;-88
2022/01/28 10:52:42;;;;;;;22.48;6.10;;;;;;;9.30;70.27;102610.34;5007789;28;20276;-89
2022/01/28 10:55:15;;;;;;;11.95;5.80;;;;;;;9.22;70.40;102610.59;4994433;28;20025;-89
2022/01/28 10:57:40;;;;;;;18.95;6.40;;;;;;;9.31;71.20;102617.31;5000212;28;20032;-88
2022/01/28 11:00:06;;;;;;;10.48;5.18;;;;;;;9.36;70.89;102604.97;5005316;28;20017;-87
2022/01/28 11:02:32;;;;;;;7.28;5.57;;;;;;;9.57;69.89;102603.47;5012690;28;20361;-87
2022/01/28 11:04:58;;;;;;;23.15;7.35;;;;;;;9.47;70.66;102595.00;5007050;28;20101;-87
2022/01/28 11:07:28;;;;;;;9.88;6.07;;;;;;;9.50;70.57;102588.84;5016594;28;20042;-88
2022/01/28 11:09:54;;;;;;;13.90;6.45;;;;;;;9.49;71.12;102584.47;5001694;28;20030;-88
2022/01/28 11:12:19;;;;;;;62.67;7.80;;;;;;;9.51;70.58;102593.16;4993808;28;20370;-88
2022/01/28 11:14:45;;;;;;;5.47;4.47;;;;;;;9.60;70.49;102579.81;4993983;28;20034;-88
2022/01/28 11:17:12;;;;;;;7.78;5.38;;;;;;;9.66;71.17;102574.38;4993955;28;20106;-88
2022/01/28 11:19:39;;;;;;;20.27;5.10;;;;;;;9.81;70.65;102575.66;5006846;28;20044;-88
2022/01/28 11:22:08;;;;;;;20.08;5.93;;;;;;;9.93;70.59;102567.44;5013149;28;20026;-88
2022/01/28 11:25:06;;;;;;;9.10;6.35;;;;;;;10.01;70.63;102571.56;4999387;28;20041;-88
2022/01/28 11:27:35;;;;;;;26.63;6.65;;;;;;;9.88;71.11;102571.09;4992383;28;20109;-88
2022/01/28 11:30:19;;;;;;;27.88;5.90;;;;;;;9.95;70.27;102561.28;4999789;28;20026;-88
2022/01/28 11:33:01;;;;;;;7.45;5.38;;;;;;;10.07;71.11;102555.63;5012135;28;20101;-88
2022/01/28 11:35:30;;;;;;;9.95;6.65;;;;;;;10.05;70.50;102549.56;5013034;28;20472;-89
2022/01/28 11:38:02;;;;;;;12.85;5.75;;;;;;;10.16;70.55;102544.00;5011764;28;20447;-88
2022/01/28 11:40:27;;;;;;;;;;;;;;;10.40;69.62;102543.22;4993851;28;20026;-89
2022/01/28 11:43:19;;;;;;;5.28;3.95;;;;;;;10.50;69.77;102541.16;5003758;28;19917;-88
2022/01/28 11:45:44;;;;;;;6.72;5.10;;;;;;;10.54;69.59;102540.13;5012689;28;20026;-88
2022/01/28 11:48:10;;;;;;;7.13;4.38;;;;;;;10.58;69.92;102528.59;4998673;28;20038;-88
2022/01/28 11:50:35;;;;;;;7.10;4.20;;;;;;;10.69;70.09;102523.00;4993703;28;20022;-89
2022/01/28 11:53:01;;;;;;;7.03;5.00;;;;;;;10.89;70.01;102515.28;4996372;28;20468;-88
2022/01/28 11:55:26;;;;;;;6.45;4.72;;;;;;;11.06;69.54;102512.03;5006479;28;20507;-89
2022/01/28 11:58:14;;;;;;;8.00;5.93;;;;;;;11.21;69.53;102502.72;5003418;28;20457;-89
2022/01/28 12:00:42;;;;;;;7.85;5.20;;;;;;;11.46;69.05;102510.56;5024980;28;20080;-89
2022/01/28 12:03:26;;;;;;;8.00;5.95;;;;;;;11.58;69.02;102503.13;5016560;28;20033;-89
2022/01/28 12:05:56;;;;;;;6.78;5.03;;;;;;;11.65;68.92;102515.09;5004997;28;20094;-88
2022/01/28 12:08:25;;;;;;;8.60;5.38;;;;;;;11.75;68.66;102511.22;5023290;28;20034;-88
2022/01/28 12:10:52;;;;;;;6.75;5.43;;;;;;;11.85;67.84;102503.81;5020712;28;20026;-90
2022/01/28 12:13:29;;;;;;;8.80;5.85;;;;;;;11.98;68.19;102501.56;5021277;28;20084;-88
2022/01/28 12:16:01;;;;;;;7.95;6.00;;;;;;;12.07;68.05;102509.09;5020845;28;20034;-88
2022/01/28 12:18:45;;;;;;;8.00;5.63;;;;;;;12.14;67.86;102509.69;5016502;28;20022;-86
2022/01/28 12:21:19;;;;;;;14.93;7.00;;;;;;;12.15;67.53;102504.38;5007698;28;20121;-88
2022/01/28 12:23:46;;;;;;;11.88;6.38;;;;;;;12.12;67.54;102504.50;5011048;28;20034;-88
2022/01/28 12:26:16;;;;;;;8.38;5.88;;;;;;;11.96;66.96;102492.88;4996074;28;20061;-88
2022/01/28 12:29:02;;;;;;;10.48;6.38;;;;;;;11.98;66.67;102475.25;5002486;28;20030;-87
2022/01/28 12:31:32;;;;;;;10.35;6.65;;;;;;;12.02;67.18;102484.72;5007758;28;20022;-88
2022/01/28 12:34:02;;;;;;;9.25;5.70;;;;;;;12.14;67.44;102462.28;5006053;28;20034;-88
2022/01/28 12:36:34;;;;;;;11.63;6.30;;;;;;;12.36;66.48;102463.13;5013971;28;20101;-88
2022/01/28 12:39:32;;;;;;;15.13;7.05;;;;;;;12.49;67.07;102460.81;5015020;28;20022;-88
2022/01/28 12:42:04;;;;;;;10.27;5.85;;;;;;;12.75;66.35;102461.44;5009534;28;20040;-88
2022/01/28 12:44:31;;;;;;;12.45;6.00;;;;;;;13.03;65.46;102446.09;4995250;28;20026;-89
2022/01/28 12:47:01;;;;;;;8.68;5.25;;;;;;;13.77;64.73;102437.34;4999355;28;20018;-89
2022/01/28 12:49:33;;;;;;;13.23;5.50;;;;;;;13.97;63.65;102425.81;5003531;28;20027;-89
2022/01/28 12:52:04;;;;;;;9.10;5.72;;;;;;;14.24;62.47;102426.19;5012880;28;20089;-89
2022/01/28 12:54:41;;;;;;;9.30;5.65;;;;;;;14.72;60.77;102430.81;5013115;28;20025;-89
2022/01/28 12:57:09;;;;;;;9.20;5.38;;;;;;;14.98;59.10;102427.63;5000352;28;20029;-89
2022/01/28 12:59:35;;;;;;;8.77;5.15;;;;;;;14.72;59.64;102431.69;5006506;28;20034;-89
2022/01/28 13:02:01;;;;;;;9.43;5.63;;;;;;;14.59;59.36;102431.50;5005193;28;20029;-89
2022/01/28 13:04:48;;;;;;;9.65;5.40;;;;;;;14.53;58.74;102420.31;5013559;28;20030;-89
2022/01/28 13:09:56;;;;;;;6.45;3.70;;;;;;;15.31;58.04;102428.50;5001617;28;20182;-89